sensor_id;sensor_type;location;lat;lon;timestamp;P1;durP1;ratioP1;P2;durP2;ratioP2
41799;SDS011;27468;47.460;19.034;2023-03-14T00:00:20;11.02;;;6.40;;
41799;SDS011;27468;47.460;19.034;2023-03-14T00:02:50;12.70;;;6.32;;
41799;SDS011;27468;47.460;19.034;2023-03-14T00:05:17;11.27;;;6.07;;
41799;SDS011;27468;47.460;19.034;2023-03-14T00:07:42;10.27;;;6.53;;
41799;SDS011;27468;47.460;19.034;2023-03-14T00:10:09;11.82;;;6.35;;
41799;SDS011;27468;47.460;19.034;2023-03-14T00:12:36;10.35;;;6.13;;
41799;SDS011;27468;47.460;19.034;2023-03-14T00:15:01;10.73;;;6.30;;
41799;SDS011;27468;47.460;19.034;2023-03-14T00:17:28;10.50;;;5.97;;
41799;SDS011;27468;47.460;19.034;2023-03-14T00:19:54;10.60;;;6.47;;
41799;SDS011;27468;47.460;19.034;2023-03-14T00:22:20;10.15;;;6.38;;
41799;SDS011;27468;47.460;19.034;2023-03-14T00:24:46;12.00;;;7.38;;
41799;SDS011;27468;47.460;19.034;2023-03-14T00:27:11;11.57;;;6.55;;
41799;SDS011;27468;47.460;19.034;2023-03-14T00:29:37;9.95;;;6.57;;
41799;SDS011;27468;47.460;19.034;2023-03-14T00:32:02;10.65;;;6.15;;
41799;SDS011;27468;47.460;19.034;2023-03-14T00:34:28;10.30;;;6.60;;
41799;SDS011;27468;47.460;19.034;2023-03-14T00:36:56;10.68;;;6.35;;
41799;SDS011;27468;47.460;19.034;2023-03-14T00:39:21;11.52;;;6.80;;
41799;SDS011;27468;47.460;19.034;2023-03-14T00:41:47;11.55;;;6.82;;
41799;SDS011;27468;47.460;19.034;2023-03-14T00:44:12;11.88;;;6.80;;
41799;SDS011;27468;47.460;19.034;2023-03-14T00:46:38;12.35;;;6.70;;
41799;SDS011;27468;47.460;19.034;2023-03-14T00:49:04;10.88;;;6.65;;
41799;SDS011;27468;47.460;19.034;2023-03-14T00:51:29;9.48;;;6.10;;
41799;SDS011;27468;47.460;19.034;2023-03-14T00:53:55;12.65;;;7.30;;
41799;SDS011;27468;47.460;19.034;2023-03-14T00:56:20;11.32;;;6.75;;
41799;SDS011;27468;47.460;19.034;2023-03-14T00:58:46;11.75;;;6.95;;
41799;SDS011;27468;47.460;19.034;2023-03-14T01:01:16;11.52;;;6.57;;
41799;SDS011;27468;47.460;19.034;2023-03-14T01:03:43;10.90;;;6.47;;
41799;SDS011;27468;47.460;19.034;2023-03-14T01:06:13;11.13;;;6.90;;
41799;SDS011;27468;47.460;19.034;2023-03-14T01:08:41;12.95;;;6.90;;
41799;SDS011;27468;47.460;19.034;2023-03-14T01:11:07;12.38;;;7.15;;
41799;SDS011;27468;47.460;19.034;2023-03-14T01:13:35;10.13;;;6.68;;
41799;SDS011;27468;47.460;19.034;2023-03-14T01:16:01;12.45;;;6.70;;
41799;SDS011;27468;47.460;19.034;2023-03-14T01:18:32;11.07;;;6.45;;
41799;SDS011;27468;47.460;19.034;2023-03-14T01:20:59;10.70;;;6.55;;
41799;SDS011;27468;47.460;19.034;2023-03-14T01:23:25;12.25;;;7.30;;
41799;SDS011;27468;47.460;19.034;2023-03-14T01:25:51;10.75;;;7.50;;
41799;SDS011;27468;47.460;19.034;2023-03-14T01:28:16;10.75;;;6.93;;
41799;SDS011;27468;47.460;19.034;2023-03-14T01:30:41;11.55;;;7.32;;
41799;SDS011;27468;47.460;19.034;2023-03-14T01:33:07;13.30;;;7.57;;
41799;SDS011;27468;47.460;19.034;2023-03-14T01:35:32;11.98;;;7.07;;
41799;SDS011;27468;47.460;19.034;2023-03-14T01:37:58;11.80;;;7.35;;
41799;SDS011;27468;47.460;19.034;2023-03-14T01:40:23;13.82;;;7.97;;
41799;SDS011;27468;47.460;19.034;2023-03-14T01:42:55;12.10;;;7.22;;
41799;SDS011;27468;47.460;19.034;2023-03-14T01:48:25;12.57;;;7.47;;
41799;SDS011;27468;47.460;19.034;2023-03-14T01:50:52;11.70;;;7.22;;
41799;SDS011;27468;47.460;19.034;2023-03-14T01:53:18;12.02;;;7.00;;
41799;SDS011;27468;47.460;19.034;2023-03-14T01:55:46;13.15;;;8.23;;
41799;SDS011;27468;47.460;19.034;2023-03-14T01:58:13;12.35;;;7.10;;
41799;SDS011;27468;47.460;19.034;2023-03-14T02:00:40;11.95;;;7.50;;
41799;SDS011;27468;47.460;19.034;2023-03-14T02:03:07;10.38;;;7.18;;
41799;SDS011;27468;47.460;19.034;2023-03-14T02:05:39;12.93;;;7.82;;
41799;SDS011;27468;47.460;19.034;2023-03-14T02:08:16;11.88;;;7.32;;
41799;SDS011;27468;47.460;19.034;2023-03-14T02:10:44;11.88;;;7.55;;
41799;SDS011;27468;47.460;19.034;2023-03-14T02:13:12;12.57;;;7.72;;
41799;SDS011;27468;47.460;19.034;2023-03-14T02:15:40;12.02;;;7.13;;
41799;SDS011;27468;47.460;19.034;2023-03-14T02:18:06;11.02;;;7.07;;
41799;SDS011;27468;47.460;19.034;2023-03-14T02:23:25;14.02;;;7.82;;
41799;SDS011;27468;47.460;19.034;2023-03-14T02:26:03;12.40;;;7.25;;
41799;SDS011;27468;47.460;19.034;2023-03-14T02:28:30;12.88;;;7.88;;
41799;SDS011;27468;47.460;19.034;2023-03-14T02:30:56;11.43;;;7.45;;
41799;SDS011;27468;47.460;19.034;2023-03-14T02:33:21;11.35;;;6.93;;
41799;SDS011;27468;47.460;19.034;2023-03-14T02:36:00;11.43;;;6.93;;
41799;SDS011;27468;47.460;19.034;2023-03-14T02:41:17;12.82;;;7.85;;
41799;SDS011;27468;47.460;19.034;2023-03-14T02:43:42;12.30;;;7.68;;
41799;SDS011;27468;47.460;19.034;2023-03-14T02:46:08;10.77;;;7.35;;
41799;SDS011;27468;47.460;19.034;2023-03-14T02:48:39;11.18;;;7.15;;
41799;SDS011;27468;47.460;19.034;2023-03-14T02:51:08;13.03;;;7.53;;
41799;SDS011;27468;47.460;19.034;2023-03-14T02:53:34;11.02;;;7.50;;
41799;SDS011;27468;47.460;19.034;2023-03-14T02:56:01;12.68;;;7.63;;
41799;SDS011;27468;47.460;19.034;2023-03-14T02:58:27;14.93;;;7.47;;
41799;SDS011;27468;47.460;19.034;2023-03-14T03:00:53;13.25;;;8.13;;
41799;SDS011;27468;47.460;19.034;2023-03-14T03:03:19;10.82;;;7.25;;
41799;SDS011;27468;47.460;19.034;2023-03-14T03:05:48;10.32;;;7.40;;
41799;SDS011;27468;47.460;19.034;2023-03-14T03:08:15;11.45;;;7.68;;
41799;SDS011;27468;47.460;19.034;2023-03-14T03:10:41;12.25;;;7.53;;
41799;SDS011;27468;47.460;19.034;2023-03-14T03:13:06;13.60;;;7.88;;
41799;SDS011;27468;47.460;19.034;2023-03-14T03:15:31;14.40;;;7.88;;
41799;SDS011;27468;47.460;19.034;2023-03-14T03:17:57;11.88;;;7.75;;
41799;SDS011;27468;47.460;19.034;2023-03-14T03:20:22;11.98;;;7.30;;
41799;SDS011;27468;47.460;19.034;2023-03-14T03:22:48;14.32;;;8.00;;
41799;SDS011;27468;47.460;19.034;2023-03-14T03:25:14;11.73;;;7.63;;
41799;SDS011;27468;47.460;19.034;2023-03-14T03:27:40;11.57;;;7.75;;
41799;SDS011;27468;47.460;19.034;2023-03-14T03:30:07;11.73;;;7.47;;
41799;SDS011;27468;47.460;19.034;2023-03-14T03:32:33;14.20;;;7.78;;
41799;SDS011;27468;47.460;19.034;2023-03-14T03:34:59;12.57;;;7.40;;
41799;SDS011;27468;47.460;19.034;2023-03-14T03:37:24;14.50;;;7.95;;
41799;SDS011;27468;47.460;19.034;2023-03-14T03:39:50;12.70;;;7.30;;
41799;SDS011;27468;47.460;19.034;2023-03-14T03:42:16;11.25;;;7.63;;
41799;SDS011;27468;47.460;19.034;2023-03-14T03:44:42;13.95;;;8.40;;
41799;SDS011;27468;47.460;19.034;2023-03-14T03:47:07;12.65;;;7.43;;
41799;SDS011;27468;47.460;19.034;2023-03-14T03:49:33;11.45;;;7.10;;
41799;SDS011;27468;47.460;19.034;2023-03-14T03:51:59;12.20;;;7.82;;
41799;SDS011;27468;47.460;19.034;2023-03-14T03:54:24;13.20;;;7.60;;
41799;SDS011;27468;47.460;19.034;2023-03-14T03:56:50;13.15;;;7.25;;
41799;SDS011;27468;47.460;19.034;2023-03-14T03:59:17;12.40;;;7.63;;
41799;SDS011;27468;47.460;19.034;2023-03-14T04:01:43;12.15;;;7.35;;
41799;SDS011;27468;47.460;19.034;2023-03-14T04:04:09;13.15;;;7.28;;
41799;SDS011;27468;47.460;19.034;2023-03-14T04:06:34;11.70;;;7.28;;
41799;SDS011;27468;47.460;19.034;2023-03-14T04:09:00;11.10;;;7.30;;
41799;SDS011;27468;47.460;19.034;2023-03-14T04:11:25;12.23;;;7.60;;
41799;SDS011;27468;47.460;19.034;2023-03-14T04:13:51;11.73;;;7.78;;
41799;SDS011;27468;47.460;19.034;2023-03-14T04:16:17;10.73;;;7.32;;
41799;SDS011;27468;47.460;19.034;2023-03-14T04:18:48;12.88;;;7.32;;
41799;SDS011;27468;47.460;19.034;2023-03-14T04:21:13;13.25;;;7.95;;
41799;SDS011;27468;47.460;19.034;2023-03-14T04:23:39;12.52;;;7.35;;
41799;SDS011;27468;47.460;19.034;2023-03-14T04:26:05;14.23;;;8.18;;
41799;SDS011;27468;47.460;19.034;2023-03-14T04:28:30;15.27;;;7.43;;
41799;SDS011;27468;47.460;19.034;2023-03-14T04:30:56;11.35;;;7.40;;
41799;SDS011;27468;47.460;19.034;2023-03-14T04:33:21;11.93;;;7.32;;
41799;SDS011;27468;47.460;19.034;2023-03-14T04:35:47;11.98;;;7.00;;
41799;SDS011;27468;47.460;19.034;2023-03-14T04:38:15;11.75;;;7.07;;
41799;SDS011;27468;47.460;19.034;2023-03-14T04:40:41;12.60;;;7.38;;
41799;SDS011;27468;47.460;19.034;2023-03-14T04:43:07;11.02;;;7.03;;
41799;SDS011;27468;47.460;19.034;2023-03-14T04:45:34;12.30;;;7.00;;
41799;SDS011;27468;47.460;19.034;2023-03-14T04:48:00;10.60;;;6.55;;
41799;SDS011;27468;47.460;19.034;2023-03-14T04:50:25;11.38;;;7.68;;
41799;SDS011;27468;47.460;19.034;2023-03-14T04:52:50;10.25;;;6.43;;
41799;SDS011;27468;47.460;19.034;2023-03-14T04:55:16;10.48;;;6.32;;
41799;SDS011;27468;47.460;19.034;2023-03-14T04:57:41;12.25;;;6.50;;
41799;SDS011;27468;47.460;19.034;2023-03-14T05:00:07;11.43;;;7.05;;
41799;SDS011;27468;47.460;19.034;2023-03-14T05:02:34;10.65;;;6.40;;
41799;SDS011;27468;47.460;19.034;2023-03-14T05:04:59;10.43;;;6.85;;
41799;SDS011;27468;47.460;19.034;2023-03-14T05:07:25;10.68;;;6.45;;
41799;SDS011;27468;47.460;19.034;2023-03-14T05:09:51;12.02;;;6.95;;
41799;SDS011;27468;47.460;19.034;2023-03-14T05:12:18;11.68;;;6.47;;
41799;SDS011;27468;47.460;19.034;2023-03-14T05:14:44;11.32;;;6.57;;
41799;SDS011;27468;47.460;19.034;2023-03-14T05:17:09;12.38;;;6.53;;
41799;SDS011;27468;47.460;19.034;2023-03-14T05:19:35;12.70;;;6.75;;
41799;SDS011;27468;47.460;19.034;2023-03-14T05:22:01;10.57;;;5.95;;
41799;SDS011;27468;47.460;19.034;2023-03-14T05:24:26;11.45;;;6.18;;
41799;SDS011;27468;47.460;19.034;2023-03-14T05:26:51;10.52;;;6.45;;
41799;SDS011;27468;47.460;19.034;2023-03-14T05:29:17;12.10;;;6.50;;
41799;SDS011;27468;47.460;19.034;2023-03-14T05:31:42;10.68;;;6.25;;
41799;SDS011;27468;47.460;19.034;2023-03-14T05:34:07;10.68;;;6.55;;
41799;SDS011;27468;47.460;19.034;2023-03-14T05:36:33;13.05;;;6.40;;
41799;SDS011;27468;47.460;19.034;2023-03-14T05:38:58;11.93;;;6.25;;
41799;SDS011;27468;47.460;19.034;2023-03-14T05:41:24;10.07;;;6.15;;
41799;SDS011;27468;47.460;19.034;2023-03-14T05:43:49;8.90;;;5.55;;
41799;SDS011;27468;47.460;19.034;2023-03-14T05:46:14;9.82;;;6.28;;
41799;SDS011;27468;47.460;19.034;2023-03-14T05:48:40;22.08;;;7.20;;
41799;SDS011;27468;47.460;19.034;2023-03-14T05:51:05;10.43;;;6.13;;
41799;SDS011;27468;47.460;19.034;2023-03-14T05:53:31;9.55;;;5.95;;
41799;SDS011;27468;47.460;19.034;2023-03-14T05:55:57;13.45;;;5.80;;
41799;SDS011;27468;47.460;19.034;2023-03-14T05:58:22;10.73;;;5.75;;
41799;SDS011;27468;47.460;19.034;2023-03-14T06:00:48;9.75;;;6.13;;
41799;SDS011;27468;47.460;19.034;2023-03-14T06:03:14;9.35;;;5.68;;
41799;SDS011;27468;47.460;19.034;2023-03-14T06:05:39;10.82;;;6.50;;
41799;SDS011;27468;47.460;19.034;2023-03-14T06:08:04;13.13;;;6.72;;
41799;SDS011;27468;47.460;19.034;2023-03-14T06:10:30;11.25;;;6.60;;
41799;SDS011;27468;47.460;19.034;2023-03-14T06:12:55;10.23;;;5.63;;
41799;SDS011;27468;47.460;19.034;2023-03-14T06:15:21;10.02;;;6.25;;
41799;SDS011;27468;47.460;19.034;2023-03-14T06:17:46;9.45;;;6.00;;
41799;SDS011;27468;47.460;19.034;2023-03-14T06:20:12;10.27;;;6.22;;
41799;SDS011;27468;47.460;19.034;2023-03-14T06:22:37;11.88;;;6.65;;
41799;SDS011;27468;47.460;19.034;2023-03-14T06:25:04;11.85;;;6.05;;
41799;SDS011;27468;47.460;19.034;2023-03-14T06:27:30;9.68;;;6.07;;
41799;SDS011;27468;47.460;19.034;2023-03-14T06:29:55;8.52;;;5.95;;
41799;SDS011;27468;47.460;19.034;2023-03-14T06:32:21;9.85;;;6.35;;
41799;SDS011;27468;47.460;19.034;2023-03-14T06:34:46;10.43;;;6.07;;
41799;SDS011;27468;47.460;19.034;2023-03-14T06:37:12;9.52;;;6.35;;
41799;SDS011;27468;47.460;19.034;2023-03-14T06:39:37;10.35;;;6.35;;
41799;SDS011;27468;47.460;19.034;2023-03-14T06:42:03;11.52;;;6.88;;
41799;SDS011;27468;47.460;19.034;2023-03-14T06:44:29;11.77;;;6.68;;
41799;SDS011;27468;47.460;19.034;2023-03-14T06:46:55;11.15;;;6.50;;
41799;SDS011;27468;47.460;19.034;2023-03-14T06:49:21;9.40;;;6.13;;
41799;SDS011;27468;47.460;19.034;2023-03-14T06:51:46;11.93;;;7.20;;
41799;SDS011;27468;47.460;19.034;2023-03-14T06:54:12;11.27;;;6.32;;
41799;SDS011;27468;47.460;19.034;2023-03-14T06:56:37;12.95;;;6.95;;
41799;SDS011;27468;47.460;19.034;2023-03-14T06:59:03;10.77;;;6.47;;
41799;SDS011;27468;47.460;19.034;2023-03-14T07:01:29;10.13;;;6.28;;
41799;SDS011;27468;47.460;19.034;2023-03-14T07:03:57;11.80;;;6.65;;
41799;SDS011;27468;47.460;19.034;2023-03-14T07:06:23;10.02;;;6.35;;
41799;SDS011;27468;47.460;19.034;2023-03-14T07:08:50;10.00;;;5.90;;
41799;SDS011;27468;47.460;19.034;2023-03-14T07:11:15;11.10;;;6.25;;
41799;SDS011;27468;47.460;19.034;2023-03-14T07:13:41;11.75;;;6.22;;
41799;SDS011;27468;47.460;19.034;2023-03-14T07:16:06;9.90;;;6.15;;
41799;SDS011;27468;47.460;19.034;2023-03-14T07:18:33;12.75;;;6.88;;
41799;SDS011;27468;47.460;19.034;2023-03-14T07:20:59;10.68;;;6.00;;
41799;SDS011;27468;47.460;19.034;2023-03-14T07:23:26;11.40;;;7.22;;
41799;SDS011;27468;47.460;19.034;2023-03-14T07:25:51;12.93;;;6.85;;
41799;SDS011;27468;47.460;19.034;2023-03-14T07:28:18;11.93;;;6.32;;
41799;SDS011;27468;47.460;19.034;2023-03-14T07:30:45;12.45;;;6.00;;
41799;SDS011;27468;47.460;19.034;2023-03-14T07:33:12;10.32;;;6.05;;
41799;SDS011;27468;47.460;19.034;2023-03-14T07:35:37;9.50;;;6.10;;
41799;SDS011;27468;47.460;19.034;2023-03-14T07:38:02;12.13;;;6.63;;
41799;SDS011;27468;47.460;19.034;2023-03-14T07:40:28;10.50;;;6.63;;
41799;SDS011;27468;47.460;19.034;2023-03-14T07:42:53;11.43;;;6.40;;
41799;SDS011;27468;47.460;19.034;2023-03-14T07:45:20;8.75;;;6.47;;
41799;SDS011;27468;47.460;19.034;2023-03-14T07:47:45;11.73;;;6.35;;
41799;SDS011;27468;47.460;19.034;2023-03-14T07:50:11;13.32;;;6.65;;
41799;SDS011;27468;47.460;19.034;2023-03-14T07:52:36;9.15;;;6.15;;
41799;SDS011;27468;47.460;19.034;2023-03-14T07:55:02;9.73;;;6.38;;
41799;SDS011;27468;47.460;19.034;2023-03-14T07:57:27;8.88;;;5.72;;
41799;SDS011;27468;47.460;19.034;2023-03-14T07:59:52;11.75;;;6.68;;
41799;SDS011;27468;47.460;19.034;2023-03-14T08:02:18;13.07;;;6.65;;
41799;SDS011;27468;47.460;19.034;2023-03-14T08:04:47;13.75;;;6.85;;
41799;SDS011;27468;47.460;19.034;2023-03-14T08:07:12;12.35;;;7.03;;
41799;SDS011;27468;47.460;19.034;2023-03-14T08:09:38;11.45;;;6.70;;
41799;SDS011;27468;47.460;19.034;2023-03-14T08:12:03;13.32;;;6.05;;
41799;SDS011;27468;47.460;19.034;2023-03-14T08:14:29;12.80;;;6.32;;
41799;SDS011;27468;47.460;19.034;2023-03-14T08:16:56;11.32;;;5.90;;
41799;SDS011;27468;47.460;19.034;2023-03-14T08:19:21;10.23;;;5.53;;
41799;SDS011;27468;47.460;19.034;2023-03-14T08:21:46;10.13;;;5.50;;
41799;SDS011;27468;47.460;19.034;2023-03-14T08:24:12;15.90;;;6.20;;
41799;SDS011;27468;47.460;19.034;2023-03-14T08:26:37;13.32;;;5.97;;
41799;SDS011;27468;47.460;19.034;2023-03-14T08:29:03;12.15;;;5.38;;
41799;SDS011;27468;47.460;19.034;2023-03-14T08:31:29;11.02;;;5.85;;
41799;SDS011;27468;47.460;19.034;2023-03-14T08:33:57;11.13;;;5.75;;
41799;SDS011;27468;47.460;19.034;2023-03-14T08:36:24;8.93;;;5.30;;
41799;SDS011;27468;47.460;19.034;2023-03-14T08:38:49;10.95;;;5.68;;
41799;SDS011;27468;47.460;19.034;2023-03-14T08:41:14;10.93;;;5.00;;
41799;SDS011;27468;47.460;19.034;2023-03-14T08:43:40;8.43;;;4.93;;
41799;SDS011;27468;47.460;19.034;2023-03-14T08:46:05;9.85;;;5.72;;
41799;SDS011;27468;47.460;19.034;2023-03-14T08:48:31;12.93;;;5.25;;
41799;SDS011;27468;47.460;19.034;2023-03-14T08:50:56;13.88;;;5.25;;
41799;SDS011;27468;47.460;19.034;2023-03-14T08:53:28;12.45;;;5.03;;
41799;SDS011;27468;47.460;19.034;2023-03-14T08:55:54;8.18;;;5.18;;
41799;SDS011;27468;47.460;19.034;2023-03-14T08:58:19;10.77;;;4.75;;
41799;SDS011;27468;47.460;19.034;2023-03-14T09:00:44;8.52;;;5.20;;
41799;SDS011;27468;47.460;19.034;2023-03-14T09:03:10;9.07;;;4.50;;
41799;SDS011;27468;47.460;19.034;2023-03-14T09:05:35;9.32;;;4.55;;
41799;SDS011;27468;47.460;19.034;2023-03-14T09:08:01;7.40;;;4.50;;
41799;SDS011;27468;47.460;19.034;2023-03-14T09:10:26;7.60;;;4.20;;
41799;SDS011;27468;47.460;19.034;2023-03-14T09:12:52;8.65;;;4.20;;
41799;SDS011;27468;47.460;19.034;2023-03-14T09:15:17;8.45;;;4.60;;
41799;SDS011;27468;47.460;19.034;2023-03-14T09:17:43;9.45;;;4.50;;
41799;SDS011;27468;47.460;19.034;2023-03-14T09:20:09;9.52;;;4.20;;
41799;SDS011;27468;47.460;19.034;2023-03-14T09:22:35;9.15;;;4.22;;
41799;SDS011;27468;47.460;19.034;2023-03-14T09:25:02;7.93;;;4.53;;
41799;SDS011;27468;47.460;19.034;2023-03-14T09:27:28;10.20;;;4.70;;
41799;SDS011;27468;47.460;19.034;2023-03-14T09:29:53;7.95;;;4.32;;
41799;SDS011;27468;47.460;19.034;2023-03-14T09:32:19;7.45;;;3.88;;
41799;SDS011;27468;47.460;19.034;2023-03-14T09:34:44;7.13;;;3.90;;
41799;SDS011;27468;47.460;19.034;2023-03-14T09:37:10;8.38;;;4.13;;
41799;SDS011;27468;47.460;19.034;2023-03-14T09:39:35;8.80;;;4.03;;
41799;SDS011;27468;47.460;19.034;2023-03-14T09:42:02;8.48;;;3.70;;
41799;SDS011;27468;47.460;19.034;2023-03-14T09:44:37;8.35;;;4.10;;
41799;SDS011;27468;47.460;19.034;2023-03-14T09:47:09;6.18;;;4.10;;
41799;SDS011;27468;47.460;19.034;2023-03-14T09:49:41;13.82;;;4.88;;
41799;SDS011;27468;47.460;19.034;2023-03-14T09:52:11;8.13;;;4.50;;
41799;SDS011;27468;47.460;19.034;2023-03-14T09:54:43;7.93;;;4.80;;
41799;SDS011;27468;47.460;19.034;2023-03-14T09:57:14;7.85;;;4.07;;
41799;SDS011;27468;47.460;19.034;2023-03-14T09:59:43;6.13;;;4.28;;
41799;SDS011;27468;47.460;19.034;2023-03-14T10:02:21;10.85;;;4.03;;
41799;SDS011;27468;47.460;19.034;2023-03-14T10:04:49;8.52;;;3.88;;
41799;SDS011;27468;47.460;19.034;2023-03-14T10:07:17;8.75;;;4.15;;
41799;SDS011;27468;47.460;19.034;2023-03-14T10:09:47;5.55;;;2.90;;
41799;SDS011;27468;47.460;19.034;2023-03-14T10:12:15;5.10;;;2.53;;
41799;SDS011;27468;47.460;19.034;2023-03-14T10:14:46;5.53;;;2.00;;
41799;SDS011;27468;47.460;19.034;2023-03-14T10:17:16;4.20;;;1.67;;
41799;SDS011;27468;47.460;19.034;2023-03-14T10:19:53;4.20;;;1.52;;
41799;SDS011;27468;47.460;19.034;2023-03-14T10:22:24;2.95;;;1.40;;
41799;SDS011;27468;47.460;19.034;2023-03-14T10:24:55;5.35;;;1.48;;
41799;SDS011;27468;47.460;19.034;2023-03-14T10:27:32;2.10;;;1.00;;
41799;SDS011;27468;47.460;19.034;2023-03-14T10:30:01;2.40;;;1.00;;
41799;SDS011;27468;47.460;19.034;2023-03-14T10:32:38;2.25;;;1.00;;
41799;SDS011;27468;47.460;19.034;2023-03-14T10:37:47;3.43;;;1.00;;
41799;SDS011;27468;47.460;19.034;2023-03-14T10:40:15;4.38;;;1.30;;
41799;SDS011;27468;47.460;19.034;2023-03-14T10:42:44;3.35;;;1.30;;
41799;SDS011;27468;47.460;19.034;2023-03-14T10:47:52;4.55;;;1.25;;
41799;SDS011;27468;47.460;19.034;2023-03-14T10:50:25;4.10;;;1.40;;
41799;SDS011;27468;47.460;19.034;2023-03-14T10:52:51;5.65;;;1.48;;
41799;SDS011;27468;47.460;19.034;2023-03-14T10:55:18;2.42;;;1.33;;
41799;SDS011;27468;47.460;19.034;2023-03-14T10:57:43;2.05;;;1.15;;
41799;SDS011;27468;47.460;19.034;2023-03-14T11:00:17;3.42;;;1.30;;
41799;SDS011;27468;47.460;19.034;2023-03-14T11:05:46;2.40;;;1.10;;
41799;SDS011;27468;47.460;19.034;2023-03-14T11:08:25;3.28;;;1.27;;
41799;SDS011;27468;47.460;19.034;2023-03-14T11:11:07;3.10;;;1.83;;
41799;SDS011;27468;47.460;19.034;2023-03-14T11:16:52;3.10;;;1.40;;
41799;SDS011;27468;47.460;19.034;2023-03-14T11:21:50;3.28;;;1.15;;
41799;SDS011;27468;47.460;19.034;2023-03-14T11:29:52;2.25;;;1.55;;
41799;SDS011;27468;47.460;19.034;2023-03-14T11:32:23;3.25;;;1.10;;
41799;SDS011;27468;47.460;19.034;2023-03-14T11:34:57;1.75;;;1.02;;
41799;SDS011;27468;47.460;19.034;2023-03-14T11:37:34;3.72;;;1.13;;
41799;SDS011;27468;47.460;19.034;2023-03-14T11:42:58;2.35;;;1.20;;
41799;SDS011;27468;47.460;19.034;2023-03-14T11:45:35;2.60;;;1.00;;
41799;SDS011;27468;47.460;19.034;2023-03-14T11:50:40;2.28;;;0.95;;
41799;SDS011;27468;47.460;19.034;2023-03-14T11:53:19;2.80;;;0.95;;
41799;SDS011;27468;47.460;19.034;2023-03-14T11:55:55;2.75;;;0.93;;
41799;SDS011;27468;47.460;19.034;2023-03-14T12:01:00;3.38;;;1.02;;
41799;SDS011;27468;47.460;19.034;2023-03-14T12:03:42;2.47;;;0.95;;
41799;SDS011;27468;47.460;19.034;2023-03-14T12:09:17;3.17;;;1.02;;
41799;SDS011;27468;47.460;19.034;2023-03-14T12:11:47;2.03;;;0.90;;
41799;SDS011;27468;47.460;19.034;2023-03-14T12:16:54;1.60;;;0.90;;
41799;SDS011;27468;47.460;19.034;2023-03-14T12:19:32;2.50;;;1.00;;
41799;SDS011;27468;47.460;19.034;2023-03-14T12:27:46;1.90;;;0.80;;
41799;SDS011;27468;47.460;19.034;2023-03-14T12:33:42;4.85;;;1.20;;
41799;SDS011;27468;47.460;19.034;2023-03-14T12:38:40;2.40;;;0.93;;
41799;SDS011;27468;47.460;19.034;2023-03-14T12:46:53;1.77;;;1.00;;
41799;SDS011;27468;47.460;19.034;2023-03-14T12:49:20;3.15;;;1.55;;
41799;SDS011;27468;47.460;19.034;2023-03-14T12:51:47;3.60;;;1.13;;
41799;SDS011;27468;47.460;19.034;2023-03-14T12:57:15;1.80;;;0.80;;
41799;SDS011;27468;47.460;19.034;2023-03-14T12:59:52;2.92;;;1.02;;
41799;SDS011;27468;47.460;19.034;2023-03-14T13:02:38;2.63;;;1.08;;
41799;SDS011;27468;47.460;19.034;2023-03-14T13:05:13;3.78;;;1.13;;
41799;SDS011;27468;47.460;19.034;2023-03-14T13:10:25;2.33;;;1.30;;
41799;SDS011;27468;47.460;19.034;2023-03-14T13:15:30;3.28;;;1.60;;
41799;SDS011;27468;47.460;19.034;2023-03-14T13:20:36;3.30;;;1.35;;
41799;SDS011;27468;47.460;19.034;2023-03-14T13:23:05;2.38;;;1.20;;
41799;SDS011;27468;47.460;19.034;2023-03-14T13:25:44;4.07;;;1.50;;
41799;SDS011;27468;47.460;19.034;2023-03-14T13:28:11;2.65;;;1.33;;
41799;SDS011;27468;47.460;19.034;2023-03-14T13:30:39;2.33;;;1.35;;
41799;SDS011;27468;47.460;19.034;2023-03-14T13:33:06;3.65;;;1.20;;
41799;SDS011;27468;47.460;19.034;2023-03-14T13:35:41;3.03;;;1.10;;
41799;SDS011;27468;47.460;19.034;2023-03-14T13:38:16;2.55;;;1.05;;
41799;SDS011;27468;47.460;19.034;2023-03-14T13:40:46;2.33;;;1.58;;
41799;SDS011;27468;47.460;19.034;2023-03-14T13:46:10;5.10;;;1.35;;
41799;SDS011;27468;47.460;19.034;2023-03-14T13:48:41;2.40;;;1.13;;
41799;SDS011;27468;47.460;19.034;2023-03-14T13:51:11;3.75;;;1.35;;
41799;SDS011;27468;47.460;19.034;2023-03-14T13:53:46;3.20;;;1.30;;
41799;SDS011;27468;47.460;19.034;2023-03-14T13:56:15;3.40;;;1.48;;
41799;SDS011;27468;47.460;19.034;2023-03-14T13:58:41;3.53;;;1.50;;
41799;SDS011;27468;47.460;19.034;2023-03-14T14:03:45;2.70;;;1.60;;
41799;SDS011;27468;47.460;19.034;2023-03-14T14:06:30;4.25;;;2.08;;
41799;SDS011;27468;47.460;19.034;2023-03-14T14:09:10;4.93;;;2.00;;
41799;SDS011;27468;47.460;19.034;2023-03-14T14:11:42;3.50;;;1.83;;
41799;SDS011;27468;47.460;19.034;2023-03-14T14:17:04;3.75;;;1.80;;
41799;SDS011;27468;47.460;19.034;2023-03-14T14:19:31;3.33;;;1.52;;
41799;SDS011;27468;47.460;19.034;2023-03-14T14:21:59;3.97;;;1.63;;
41799;SDS011;27468;47.460;19.034;2023-03-14T14:24:28;3.50;;;1.65;;
41799;SDS011;27468;47.460;19.034;2023-03-14T14:27:00;3.85;;;1.50;;
41799;SDS011;27468;47.460;19.034;2023-03-14T14:29:33;4.55;;;1.60;;
41799;SDS011;27468;47.460;19.034;2023-03-14T14:32:03;3.78;;;1.77;;
41799;SDS011;27468;47.460;19.034;2023-03-14T14:37:21;5.68;;;1.65;;
41799;SDS011;27468;47.460;19.034;2023-03-14T14:39:49;6.22;;;1.92;;
41799;SDS011;27468;47.460;19.034;2023-03-14T14:42:17;3.53;;;1.60;;
41799;SDS011;27468;47.460;19.034;2023-03-14T14:44:47;5.70;;;1.95;;
41799;SDS011;27468;47.460;19.034;2023-03-14T14:47:16;3.35;;;1.67;;
41799;SDS011;27468;47.460;19.034;2023-03-14T14:49:44;4.55;;;1.92;;
41799;SDS011;27468;47.460;19.034;2023-03-14T14:52:13;3.85;;;1.90;;
41799;SDS011;27468;47.460;19.034;2023-03-14T14:54:43;6.60;;;2.55;;
41799;SDS011;27468;47.460;19.034;2023-03-14T14:57:19;4.25;;;2.45;;
41799;SDS011;27468;47.460;19.034;2023-03-14T14:59:48;4.38;;;2.80;;
41799;SDS011;27468;47.460;19.034;2023-03-14T15:02:30;5.20;;;3.05;;
41799;SDS011;27468;47.460;19.034;2023-03-14T15:05:01;5.72;;;3.13;;
41799;SDS011;27468;47.460;19.034;2023-03-14T15:07:26;4.85;;;2.50;;
41799;SDS011;27468;47.460;19.034;2023-03-14T15:09:52;4.78;;;2.67;;
41799;SDS011;27468;47.460;19.034;2023-03-14T15:12:17;6.63;;;2.80;;
41799;SDS011;27468;47.460;19.034;2023-03-14T15:14:43;6.18;;;3.20;;
41799;SDS011;27468;47.460;19.034;2023-03-14T15:17:10;8.85;;;3.92;;
41799;SDS011;27468;47.460;19.034;2023-03-14T15:19:36;8.88;;;3.50;;
41799;SDS011;27468;47.460;19.034;2023-03-14T15:22:02;7.22;;;3.00;;
41799;SDS011;27468;47.460;19.034;2023-03-14T15:24:28;5.13;;;2.95;;
41799;SDS011;27468;47.460;19.034;2023-03-14T15:26:53;6.75;;;2.88;;
41799;SDS011;27468;47.460;19.034;2023-03-14T15:29:19;6.78;;;2.90;;
41799;SDS011;27468;47.460;19.034;2023-03-14T15:31:44;7.18;;;3.25;;
41799;SDS011;27468;47.460;19.034;2023-03-14T15:34:10;5.25;;;2.90;;
41799;SDS011;27468;47.460;19.034;2023-03-14T15:36:36;5.75;;;3.28;;
41799;SDS011;27468;47.460;19.034;2023-03-14T15:39:03;4.25;;;2.75;;
41799;SDS011;27468;47.460;19.034;2023-03-14T15:41:30;6.93;;;2.80;;
41799;SDS011;27468;47.460;19.034;2023-03-14T15:43:56;4.43;;;2.38;;
41799;SDS011;27468;47.460;19.034;2023-03-14T15:46:21;6.45;;;2.60;;
41799;SDS011;27468;47.460;19.034;2023-03-14T15:48:50;4.57;;;2.35;;
41799;SDS011;27468;47.460;19.034;2023-03-14T15:51:17;5.05;;;2.92;;